Edenburg, South Africa
Current Conditions -  °F | °C
As of 8:00 PM on Tuesday 21 Oct 2014 (Local Time) from FABL Reporting Station
Clear Clear  
Wind Chill: 77°   Ceiling: Unl
Heat Index: 77°   Visibility: 6mi
Dew Point: 18°   Wind: 8mph
Humidity: 11%   Direction: 170°S
Pressure: 30.09"   Gusts: NA
Location:  29.74°S, 25.94°E
Report Text: FABL 211800Z 17007KT CAVOK 25/M08 Q1019 NOSIG
Loading
Personal Weather Stations






























Interactive Weather Map
Tropical Storm Tracking
New forecast layout! Learn more

10-Day Weather Forecast

Advertisements
Track Severe Weather on mobile